sensor_id;sensor_type;location;lat;lon;timestamp;P1;durP1;ratioP1;P2;durP2;ratioP2
41219;SDS011;26951;47.338;9.196;2024-01-30T00:01:46;0.82;;;0.82;;
41219;SDS011;26951;47.338;9.196;2024-01-30T00:04:30;0.80;;;0.77;;
41219;SDS011;26951;47.338;9.196;2024-01-30T00:07:14;1.00;;;0.90;;
41219;SDS011;26951;47.338;9.196;2024-01-30T00:09:58;1.27;;;0.88;;
41219;SDS011;26951;47.338;9.196;2024-01-30T00:12:42;0.85;;;0.82;;
41219;SDS011;26951;47.338;9.196;2024-01-30T00:15:26;1.10;;;1.00;;
41219;SDS011;26951;47.338;9.196;2024-01-30T00:18:10;2.08;;;0.88;;
41219;SDS011;26951;47.338;9.196;2024-01-30T00:20:54;1.00;;;0.90;;
41219;SDS011;26951;47.338;9.196;2024-01-30T00:23:38;1.02;;;0.98;;
41219;SDS011;26951;47.338;9.196;2024-01-30T00:26:22;0.95;;;0.88;;
41219;SDS011;26951;47.338;9.196;2024-01-30T00:29:06;1.10;;;1.00;;
41219;SDS011;26951;47.338;9.196;2024-01-30T00:31:50;1.35;;;0.90;;
41219;SDS011;26951;47.338;9.196;2024-01-30T00:34:34;1.13;;;0.70;;
41219;SDS011;26951;47.338;9.196;2024-01-30T00:37:18;1.67;;;0.85;;
41219;SDS011;26951;47.338;9.196;2024-01-30T00:40:02;1.20;;;0.93;;
41219;SDS011;26951;47.338;9.196;2024-01-30T00:42:47;0.70;;;0.70;;
41219;SDS011;26951;47.338;9.196;2024-01-30T00:45:31;1.30;;;1.20;;
41219;SDS011;26951;47.338;9.196;2024-01-30T00:48:15;1.02;;;0.88;;
41219;SDS011;26951;47.338;9.196;2024-01-30T00:50:59;1.13;;;1.02;;
41219;SDS011;26951;47.338;9.196;2024-01-30T00:53:43;1.63;;;1.10;;
41219;SDS011;26951;47.338;9.196;2024-01-30T00:56:27;0.90;;;0.90;;
41219;SDS011;26951;47.338;9.196;2024-01-30T00:59:11;0.80;;;0.80;;
41219;SDS011;26951;47.338;9.196;2024-01-30T01:01:55;0.90;;;0.80;;
41219;SDS011;26951;47.338;9.196;2024-01-30T01:04:39;0.93;;;0.70;;
41219;SDS011;26951;47.338;9.196;2024-01-30T01:07:24;1.10;;;1.00;;
41219;SDS011;26951;47.338;9.196;2024-01-30T01:10:08;2.17;;;0.85;;
41219;SDS011;26951;47.338;9.196;2024-01-30T01:12:52;0.63;;;0.63;;
41219;SDS011;26951;47.338;9.196;2024-01-30T01:15:36;0.85;;;0.85;;
41219;SDS011;26951;47.338;9.196;2024-01-30T01:18:20;1.10;;;0.70;;
41219;SDS011;26951;47.338;9.196;2024-01-30T01:21:04;2.15;;;1.65;;
41219;SDS011;26951;47.338;9.196;2024-01-30T01:23:49;1.52;;;1.00;;
41219;SDS011;26951;47.338;9.196;2024-01-30T01:26:33;0.95;;;0.85;;
41219;SDS011;26951;47.338;9.196;2024-01-30T01:29:17;1.00;;;0.85;;
41219;SDS011;26951;47.338;9.196;2024-01-30T01:32:01;1.08;;;0.98;;
41219;SDS011;26951;47.338;9.196;2024-01-30T01:34:46;1.13;;;1.00;;
41219;SDS011;26951;47.338;9.196;2024-01-30T01:37:30;0.73;;;0.73;;
41219;SDS011;26951;47.338;9.196;2024-01-30T01:40:14;0.82;;;0.82;;
41219;SDS011;26951;47.338;9.196;2024-01-30T01:43:02;1.55;;;1.02;;
41219;SDS011;26951;47.338;9.196;2024-01-30T01:45:48;1.25;;;1.05;;
41219;SDS011;26951;47.338;9.196;2024-01-30T01:48:32;1.73;;;1.08;;
41219;SDS011;26951;47.338;9.196;2024-01-30T01:51:17;1.33;;;0.80;;
41219;SDS011;26951;47.338;9.196;2024-01-30T01:54:04;0.77;;;0.77;;
41219;SDS011;26951;47.338;9.196;2024-01-30T01:56:49;1.00;;;0.90;;
41219;SDS011;26951;47.338;9.196;2024-01-30T01:59:34;1.10;;;1.00;;
41219;SDS011;26951;47.338;9.196;2024-01-30T02:04:52;0.90;;;0.80;;
41219;SDS011;26951;47.338;9.196;2024-01-30T02:07:36;1.48;;;1.10;;
41219;SDS011;26951;47.338;9.196;2024-01-30T02:10:21;1.83;;;0.93;;
41219;SDS011;26951;47.338;9.196;2024-01-30T02:13:05;1.20;;;1.10;;
41219;SDS011;26951;47.338;9.196;2024-01-30T02:15:50;1.65;;;0.73;;
41219;SDS011;26951;47.338;9.196;2024-01-30T02:18:37;1.70;;;0.80;;
41219;SDS011;26951;47.338;9.196;2024-01-30T02:21:25;1.05;;;0.80;;
41219;SDS011;26951;47.338;9.196;2024-01-30T02:24:09;0.80;;;0.80;;
41219;SDS011;26951;47.338;9.196;2024-01-30T02:26:53;0.73;;;0.70;;
41219;SDS011;26951;47.338;9.196;2024-01-30T02:29:37;2.28;;;1.10;;
41219;SDS011;26951;47.338;9.196;2024-01-30T02:32:21;2.08;;;1.00;;
41219;SDS011;26951;47.338;9.196;2024-01-30T02:35:06;1.27;;;1.00;;
41219;SDS011;26951;47.338;9.196;2024-01-30T02:37:50;1.13;;;1.02;;
41219;SDS011;26951;47.338;9.196;2024-01-30T02:40:33;1.00;;;0.80;;
41219;SDS011;26951;47.338;9.196;2024-01-30T02:43:18;1.40;;;0.90;;
41219;SDS011;26951;47.338;9.196;2024-01-30T02:46:02;1.05;;;0.95;;
41219;SDS011;26951;47.338;9.196;2024-01-30T02:48:46;1.05;;;0.90;;
41219;SDS011;26951;47.338;9.196;2024-01-30T02:51:30;0.80;;;0.80;;
41219;SDS011;26951;47.338;9.196;2024-01-30T02:54:14;0.93;;;0.85;;
41219;SDS011;26951;47.338;9.196;2024-01-30T02:56:58;0.95;;;0.80;;
41219;SDS011;26951;47.338;9.196;2024-01-30T02:59:42;0.90;;;0.90;;
41219;SDS011;26951;47.338;9.196;2024-01-30T03:02:26;0.70;;;0.70;;
41219;SDS011;26951;47.338;9.196;2024-01-30T03:05:11;1.58;;;1.20;;
41219;SDS011;26951;47.338;9.196;2024-01-30T03:07:55;1.15;;;0.90;;
41219;SDS011;26951;47.338;9.196;2024-01-30T03:10:39;1.00;;;0.82;;
41219;SDS011;26951;47.338;9.196;2024-01-30T03:13:23;0.77;;;0.77;;
41219;SDS011;26951;47.338;9.196;2024-01-30T03:16:08;1.00;;;0.90;;
41219;SDS011;26951;47.338;9.196;2024-01-30T03:18:53;0.90;;;0.90;;
41219;SDS011;26951;47.338;9.196;2024-01-30T03:21:39;2.30;;;1.35;;
41219;SDS011;26951;47.338;9.196;2024-01-30T03:24:23;1.20;;;1.10;;
41219;SDS011;26951;47.338;9.196;2024-01-30T03:27:07;1.17;;;1.00;;
41219;SDS011;26951;47.338;9.196;2024-01-30T03:29:52;2.03;;;1.20;;
41219;SDS011;26951;47.338;9.196;2024-01-30T03:32:42;1.38;;;0.90;;
41219;SDS011;26951;47.338;9.196;2024-01-30T03:35:26;3.10;;;1.00;;
41219;SDS011;26951;47.338;9.196;2024-01-30T03:38:10;0.80;;;0.80;;
41219;SDS011;26951;47.338;9.196;2024-01-30T03:40:54;1.13;;;0.93;;
41219;SDS011;26951;47.338;9.196;2024-01-30T03:43:38;1.15;;;0.90;;
41219;SDS011;26951;47.338;9.196;2024-01-30T03:46:22;1.10;;;0.93;;
41219;SDS011;26951;47.338;9.196;2024-01-30T03:49:07;2.13;;;1.13;;
41219;SDS011;26951;47.338;9.196;2024-01-30T03:51:51;1.55;;;1.17;;
41219;SDS011;26951;47.338;9.196;2024-01-30T03:54:35;1.45;;;1.10;;
41219;SDS011;26951;47.338;9.196;2024-01-30T03:57:19;1.17;;;1.08;;
41219;SDS011;26951;47.338;9.196;2024-01-30T04:00:03;0.85;;;0.77;;
41219;SDS011;26951;47.338;9.196;2024-01-30T04:02:48;0.98;;;0.80;;
41219;SDS011;26951;47.338;9.196;2024-01-30T04:05:34;1.02;;;0.80;;
41219;SDS011;26951;47.338;9.196;2024-01-30T04:08:19;0.95;;;0.93;;
41219;SDS011;26951;47.338;9.196;2024-01-30T04:11:06;1.00;;;0.90;;
41219;SDS011;26951;47.338;9.196;2024-01-30T04:13:51;1.15;;;1.02;;
41219;SDS011;26951;47.338;9.196;2024-01-30T04:16:35;1.15;;;1.05;;
41219;SDS011;26951;47.338;9.196;2024-01-30T04:19:19;1.13;;;0.90;;
41219;SDS011;26951;47.338;9.196;2024-01-30T04:22:03;1.25;;;1.00;;
41219;SDS011;26951;47.338;9.196;2024-01-30T04:24:48;2.90;;;1.20;;
41219;SDS011;26951;47.338;9.196;2024-01-30T04:27:32;1.65;;;1.17;;
41219;SDS011;26951;47.338;9.196;2024-01-30T04:30:16;1.13;;;1.02;;
41219;SDS011;26951;47.338;9.196;2024-01-30T04:33:00;1.33;;;1.05;;
41219;SDS011;26951;47.338;9.196;2024-01-30T04:35:44;1.50;;;1.15;;
41219;SDS011;26951;47.338;9.196;2024-01-30T04:38:28;1.90;;;1.27;;
41219;SDS011;26951;47.338;9.196;2024-01-30T04:41:13;2.17;;;1.50;;
41219;SDS011;26951;47.338;9.196;2024-01-30T04:43:57;1.95;;;1.27;;
41219;SDS011;26951;47.338;9.196;2024-01-30T04:46:41;2.75;;;1.70;;
41219;SDS011;26951;47.338;9.196;2024-01-30T04:49:26;2.28;;;1.63;;
41219;SDS011;26951;47.338;9.196;2024-01-30T04:52:11;5.23;;;2.10;;
41219;SDS011;26951;47.338;9.196;2024-01-30T04:54:55;2.45;;;1.80;;
41219;SDS011;26951;47.338;9.196;2024-01-30T04:57:39;3.80;;;2.05;;
41219;SDS011;26951;47.338;9.196;2024-01-30T05:00:23;2.40;;;1.60;;
41219;SDS011;26951;47.338;9.196;2024-01-30T05:03:07;2.20;;;1.45;;
41219;SDS011;26951;47.338;9.196;2024-01-30T05:05:52;4.18;;;2.90;;
41219;SDS011;26951;47.338;9.196;2024-01-30T05:08:36;3.00;;;2.00;;
41219;SDS011;26951;47.338;9.196;2024-01-30T05:11:20;3.50;;;1.95;;
41219;SDS011;26951;47.338;9.196;2024-01-30T05:14:04;3.55;;;2.17;;
41219;SDS011;26951;47.338;9.196;2024-01-30T05:16:49;3.97;;;2.22;;
41219;SDS011;26951;47.338;9.196;2024-01-30T05:19:33;4.00;;;2.50;;
41219;SDS011;26951;47.338;9.196;2024-01-30T05:22:17;2.75;;;1.70;;
41219;SDS011;26951;47.338;9.196;2024-01-30T05:25:02;3.13;;;2.13;;
41219;SDS011;26951;47.338;9.196;2024-01-30T05:27:47;1.90;;;1.70;;
41219;SDS011;26951;47.338;9.196;2024-01-30T05:30:31;3.45;;;2.28;;
41219;SDS011;26951;47.338;9.196;2024-01-30T05:33:15;2.78;;;2.20;;
41219;SDS011;26951;47.338;9.196;2024-01-30T05:36:00;4.90;;;2.10;;
41219;SDS011;26951;47.338;9.196;2024-01-30T05:38:44;3.05;;;2.10;;
41219;SDS011;26951;47.338;9.196;2024-01-30T05:41:28;3.08;;;2.20;;
41219;SDS011;26951;47.338;9.196;2024-01-30T05:44:12;3.53;;;2.22;;
41219;SDS011;26951;47.338;9.196;2024-01-30T05:46:56;2.65;;;2.00;;
41219;SDS011;26951;47.338;9.196;2024-01-30T05:49:40;2.03;;;1.60;;
41219;SDS011;26951;47.338;9.196;2024-01-30T05:52:24;3.38;;;1.60;;
41219;SDS011;26951;47.338;9.196;2024-01-30T05:55:08;3.47;;;2.58;;
41219;SDS011;26951;47.338;9.196;2024-01-30T05:57:53;3.85;;;2.65;;
41219;SDS011;26951;47.338;9.196;2024-01-30T06:00:37;5.10;;;2.78;;
41219;SDS011;26951;47.338;9.196;2024-01-30T06:03:21;3.58;;;2.08;;
41219;SDS011;26951;47.338;9.196;2024-01-30T06:06:06;3.20;;;2.00;;
41219;SDS011;26951;47.338;9.196;2024-01-30T06:08:50;3.35;;;1.77;;
41219;SDS011;26951;47.338;9.196;2024-01-30T06:11:34;2.95;;;2.13;;
41219;SDS011;26951;47.338;9.196;2024-01-30T06:14:18;3.75;;;2.17;;
41219;SDS011;26951;47.338;9.196;2024-01-30T06:17:03;4.60;;;2.72;;
41219;SDS011;26951;47.338;9.196;2024-01-30T06:19:47;10.32;;;5.30;;
41219;SDS011;26951;47.338;9.196;2024-01-30T06:22:31;6.00;;;3.42;;
41219;SDS011;26951;47.338;9.196;2024-01-30T06:25:15;7.57;;;3.17;;
41219;SDS011;26951;47.338;9.196;2024-01-30T06:28:00;10.02;;;5.47;;
41219;SDS011;26951;47.338;9.196;2024-01-30T06:30:44;22.95;;;12.05;;
41219;SDS011;26951;47.338;9.196;2024-01-30T06:33:28;15.15;;;7.20;;
41219;SDS011;26951;47.338;9.196;2024-01-30T06:36:12;10.50;;;5.82;;
41219;SDS011;26951;47.338;9.196;2024-01-30T06:38:56;7.85;;;4.68;;
41219;SDS011;26951;47.338;9.196;2024-01-30T06:41:40;8.20;;;4.22;;
41219;SDS011;26951;47.338;9.196;2024-01-30T06:44:24;8.63;;;5.15;;
41219;SDS011;26951;47.338;9.196;2024-01-30T06:47:08;6.68;;;4.28;;
41219;SDS011;26951;47.338;9.196;2024-01-30T06:49:52;8.25;;;4.47;;
41219;SDS011;26951;47.338;9.196;2024-01-30T06:52:36;7.28;;;4.22;;
41219;SDS011;26951;47.338;9.196;2024-01-30T06:55:20;5.03;;;3.42;;
41219;SDS011;26951;47.338;9.196;2024-01-30T06:58:04;4.65;;;2.60;;
41219;SDS011;26951;47.338;9.196;2024-01-30T07:00:48;3.15;;;1.80;;
41219;SDS011;26951;47.338;9.196;2024-01-30T07:03:32;2.20;;;1.77;;
41219;SDS011;26951;47.338;9.196;2024-01-30T07:06:16;3.78;;;1.88;;
41219;SDS011;26951;47.338;9.196;2024-01-30T07:09:00;2.08;;;1.60;;
41219;SDS011;26951;47.338;9.196;2024-01-30T07:11:44;2.50;;;1.60;;
41219;SDS011;26951;47.338;9.196;2024-01-30T07:14:28;2.28;;;1.50;;
41219;SDS011;26951;47.338;9.196;2024-01-30T07:17:12;2.30;;;1.30;;
41219;SDS011;26951;47.338;9.196;2024-01-30T07:19:56;1.30;;;1.20;;
41219;SDS011;26951;47.338;9.196;2024-01-30T07:22:40;2.40;;;1.50;;
41219;SDS011;26951;47.338;9.196;2024-01-30T07:25:25;1.90;;;1.20;;
41219;SDS011;26951;47.338;9.196;2024-01-30T07:28:10;1.38;;;1.20;;
41219;SDS011;26951;47.338;9.196;2024-01-30T07:30:55;2.22;;;1.20;;
41219;SDS011;26951;47.338;9.196;2024-01-30T07:33:39;1.83;;;1.30;;
41219;SDS011;26951;47.338;9.196;2024-01-30T07:36:24;2.20;;;1.30;;
41219;SDS011;26951;47.338;9.196;2024-01-30T07:39:08;1.75;;;1.58;;
41219;SDS011;26951;47.338;9.196;2024-01-30T07:41:53;1.20;;;1.10;;
41219;SDS011;26951;47.338;9.196;2024-01-30T07:44:37;1.63;;;1.10;;
41219;SDS011;26951;47.338;9.196;2024-01-30T07:47:22;3.83;;;1.10;;
41219;SDS011;26951;47.338;9.196;2024-01-30T07:50:06;2.65;;;1.17;;
41219;SDS011;26951;47.338;9.196;2024-01-30T07:52:50;1.25;;;1.13;;
41219;SDS011;26951;47.338;9.196;2024-01-30T07:55:38;1.70;;;1.23;;
41219;SDS011;26951;47.338;9.196;2024-01-30T07:58:22;1.40;;;1.10;;
41219;SDS011;26951;47.338;9.196;2024-01-30T08:01:07;1.30;;;1.10;;
41219;SDS011;26951;47.338;9.196;2024-01-30T08:03:51;2.83;;;2.00;;
41219;SDS011;26951;47.338;9.196;2024-01-30T08:06:36;1.65;;;1.27;;
41219;SDS011;26951;47.338;9.196;2024-01-30T08:09:19;2.22;;;1.33;;
41219;SDS011;26951;47.338;9.196;2024-01-30T08:12:04;3.85;;;1.90;;
41219;SDS011;26951;47.338;9.196;2024-01-30T08:14:48;3.70;;;2.10;;
41219;SDS011;26951;47.338;9.196;2024-01-30T08:17:32;1.80;;;1.50;;
41219;SDS011;26951;47.338;9.196;2024-01-30T08:20:16;1.92;;;1.20;;
41219;SDS011;26951;47.338;9.196;2024-01-30T08:23:01;4.72;;;1.45;;
41219;SDS011;26951;47.338;9.196;2024-01-30T08:25:45;2.58;;;1.40;;
41219;SDS011;26951;47.338;9.196;2024-01-30T08:28:29;3.13;;;1.35;;
41219;SDS011;26951;47.338;9.196;2024-01-30T08:31:13;2.28;;;1.02;;
41219;SDS011;26951;47.338;9.196;2024-01-30T08:33:57;1.95;;;1.30;;
41219;SDS011;26951;47.338;9.196;2024-01-30T08:36:42;2.45;;;1.25;;
41219;SDS011;26951;47.338;9.196;2024-01-30T08:39:26;2.05;;;1.33;;
41219;SDS011;26951;47.338;9.196;2024-01-30T08:42:10;1.42;;;1.33;;
41219;SDS011;26951;47.338;9.196;2024-01-30T08:44:55;1.47;;;1.20;;
41219;SDS011;26951;47.338;9.196;2024-01-30T08:47:40;2.08;;;1.40;;
41219;SDS011;26951;47.338;9.196;2024-01-30T08:50:24;1.40;;;1.10;;
41219;SDS011;26951;47.338;9.196;2024-01-30T08:53:08;3.00;;;1.00;;
41219;SDS011;26951;47.338;9.196;2024-01-30T08:55:52;1.58;;;1.20;;
41219;SDS011;26951;47.338;9.196;2024-01-30T08:58:36;1.77;;;1.20;;
41219;SDS011;26951;47.338;9.196;2024-01-30T09:01:20;1.88;;;1.30;;
41219;SDS011;26951;47.338;9.196;2024-01-30T09:04:04;2.40;;;1.48;;
41219;SDS011;26951;47.338;9.196;2024-01-30T09:06:48;2.38;;;1.60;;
41219;SDS011;26951;47.338;9.196;2024-01-30T09:09:33;2.33;;;1.70;;
41219;SDS011;26951;47.338;9.196;2024-01-30T09:12:17;2.30;;;1.38;;
41219;SDS011;26951;47.338;9.196;2024-01-30T09:15:01;2.10;;;1.23;;
41219;SDS011;26951;47.338;9.196;2024-01-30T09:17:45;4.40;;;1.70;;
41219;SDS011;26951;47.338;9.196;2024-01-30T09:20:29;1.90;;;1.25;;
41219;SDS011;26951;47.338;9.196;2024-01-30T09:23:13;1.95;;;1.77;;
41219;SDS011;26951;47.338;9.196;2024-01-30T09:25:57;2.88;;;1.60;;
41219;SDS011;26951;47.338;9.196;2024-01-30T09:28:41;1.90;;;1.55;;
41219;SDS011;26951;47.338;9.196;2024-01-30T09:31:26;2.05;;;1.70;;
41219;SDS011;26951;47.338;9.196;2024-01-30T09:34:11;3.13;;;1.80;;
41219;SDS011;26951;47.338;9.196;2024-01-30T09:36:55;1.90;;;1.38;;
41219;SDS011;26951;47.338;9.196;2024-01-30T09:39:39;3.78;;;1.85;;
41219;SDS011;26951;47.338;9.196;2024-01-30T09:42:35;3.40;;;1.77;;
41219;SDS011;26951;47.338;9.196;2024-01-30T09:45:23;2.85;;;1.70;;
41219;SDS011;26951;47.338;9.196;2024-01-30T09:48:09;2.03;;;1.67;;
41219;SDS011;26951;47.338;9.196;2024-01-30T09:50:53;2.38;;;1.75;;
41219;SDS011;26951;47.338;9.196;2024-01-30T09:53:37;2.15;;;1.80;;
41219;SDS011;26951;47.338;9.196;2024-01-30T09:56:23;5.10;;;2.40;;
41219;SDS011;26951;47.338;9.196;2024-01-30T09:59:07;3.05;;;2.15;;
41219;SDS011;26951;47.338;9.196;2024-01-30T10:01:51;3.92;;;2.25;;
41219;SDS011;26951;47.338;9.196;2024-01-30T10:04:35;4.40;;;2.78;;
41219;SDS011;26951;47.338;9.196;2024-01-30T10:07:19;6.65;;;3.05;;
41219;SDS011;26951;47.338;9.196;2024-01-30T10:10:05;4.93;;;3.65;;
41219;SDS011;26951;47.338;9.196;2024-01-30T10:12:50;3.95;;;2.80;;
41219;SDS011;26951;47.338;9.196;2024-01-30T10:15:34;3.70;;;2.60;;
41219;SDS011;26951;47.338;9.196;2024-01-30T10:18:22;5.63;;;3.67;;
41219;SDS011;26951;47.338;9.196;2024-01-30T10:21:07;4.43;;;2.70;;
41219;SDS011;26951;47.338;9.196;2024-01-30T10:23:54;5.50;;;3.90;;
41219;SDS011;26951;47.338;9.196;2024-01-30T10:26:39;6.03;;;3.63;;
41219;SDS011;26951;47.338;9.196;2024-01-30T10:29:23;4.28;;;3.13;;
41219;SDS011;26951;47.338;9.196;2024-01-30T10:32:08;6.22;;;3.45;;
41219;SDS011;26951;47.338;9.196;2024-01-30T10:34:52;6.15;;;3.50;;
41219;SDS011;26951;47.338;9.196;2024-01-30T10:37:36;4.18;;;3.40;;
41219;SDS011;26951;47.338;9.196;2024-01-30T10:40:21;4.25;;;3.45;;
41219;SDS011;26951;47.338;9.196;2024-01-30T10:43:08;4.82;;;3.33;;
41219;SDS011;26951;47.338;9.196;2024-01-30T10:45:57;5.53;;;3.50;;
41219;SDS011;26951;47.338;9.196;2024-01-30T10:48:51;4.45;;;2.80;;
41219;SDS011;26951;47.338;9.196;2024-01-30T10:51:42;5.10;;;3.22;;
41219;SDS011;26951;47.338;9.196;2024-01-30T10:54:27;4.38;;;3.08;;
41219;SDS011;26951;47.338;9.196;2024-01-30T10:57:12;4.18;;;2.90;;
41219;SDS011;26951;47.338;9.196;2024-01-30T10:59:58;4.40;;;2.90;;
41219;SDS011;26951;47.338;9.196;2024-01-30T11:02:45;4.45;;;2.70;;
41219;SDS011;26951;47.338;9.196;2024-01-30T11:08:14;3.90;;;2.88;;
41219;SDS011;26951;47.338;9.196;2024-01-30T11:10:58;4.45;;;2.50;;
41219;SDS011;26951;47.338;9.196;2024-01-30T11:13:42;5.10;;;2.88;;
41219;SDS011;26951;47.338;9.196;2024-01-30T11:16:30;4.60;;;2.63;;
41219;SDS011;26951;47.338;9.196;2024-01-30T11:19:15;3.72;;;2.25;;
41219;SDS011;26951;47.338;9.196;2024-01-30T11:22:07;2.83;;;2.38;;
41219;SDS011;26951;47.338;9.196;2024-01-30T11:24:51;2.53;;;1.80;;
41219;SDS011;26951;47.338;9.196;2024-01-30T11:27:35;3.65;;;2.00;;
41219;SDS011;26951;47.338;9.196;2024-01-30T11:30:28;2.88;;;2.17;;
41219;SDS011;26951;47.338;9.196;2024-01-30T11:33:14;2.72;;;2.30;;
41219;SDS011;26951;47.338;9.196;2024-01-30T11:35:58;3.13;;;1.95;;
41219;SDS011;26951;47.338;9.196;2024-01-30T11:38:43;3.88;;;1.95;;
41219;SDS011;26951;47.338;9.196;2024-01-30T11:41:28;3.08;;;1.88;;
41219;SDS011;26951;47.338;9.196;2024-01-30T11:44:14;2.25;;;1.98;;
41219;SDS011;26951;47.338;9.196;2024-01-30T11:46:58;3.33;;;1.80;;
41219;SDS011;26951;47.338;9.196;2024-01-30T11:49:43;3.20;;;1.70;;
41219;SDS011;26951;47.338;9.196;2024-01-30T11:52:27;2.77;;;1.90;;
41219;SDS011;26951;47.338;9.196;2024-01-30T11:55:12;2.50;;;1.77;;
41219;SDS011;26951;47.338;9.196;2024-01-30T11:57:57;3.20;;;1.92;;
41219;SDS011;26951;47.338;9.196;2024-01-30T12:00:42;2.37;;;2.17;;
41219;SDS011;26951;47.338;9.196;2024-01-30T12:03:27;3.10;;;1.83;;
41219;SDS011;26951;47.338;9.196;2024-01-30T12:06:11;2.30;;;1.60;;
41219;SDS011;26951;47.338;9.196;2024-01-30T12:08:58;2.47;;;1.75;;
41219;SDS011;26951;47.338;9.196;2024-01-30T12:11:44;1.85;;;1.60;;
41219;SDS011;26951;47.338;9.196;2024-01-30T12:14:31;2.85;;;1.95;;
41219;SDS011;26951;47.338;9.196;2024-01-30T12:17:49;3.20;;;1.60;;
41219;SDS011;26951;47.338;9.196;2024-01-30T12:20:27;1.88;;;1.65;;
41219;SDS011;26951;47.338;9.196;2024-01-30T12:23:11;2.83;;;1.70;;
41219;SDS011;26951;47.338;9.196;2024-01-30T12:25:56;3.15;;;1.60;;
41219;SDS011;26951;47.338;9.196;2024-01-30T12:28:47;2.15;;;1.67;;
41219;SDS011;26951;47.338;9.196;2024-01-30T12:31:33;3.03;;;1.90;;
41219;SDS011;26951;47.338;9.196;2024-01-30T12:34:17;1.85;;;1.55;;
41219;SDS011;26951;47.338;9.196;2024-01-30T12:37:04;3.63;;;2.00;;
41219;SDS011;26951;47.338;9.196;2024-01-30T12:42:35;2.08;;;1.65;;
41219;SDS011;26951;47.338;9.196;2024-01-30T12:45:20;3.90;;;1.67;;
41219;SDS011;26951;47.338;9.196;2024-01-30T12:48:05;1.80;;;1.70;;
41219;SDS011;26951;47.338;9.196;2024-01-30T12:50:50;2.10;;;1.65;;
41219;SDS011;26951;47.338;9.196;2024-01-30T12:53:34;1.67;;;1.40;;
41219;SDS011;26951;47.338;9.196;2024-01-30T12:56:18;2.28;;;1.77;;
41219;SDS011;26951;47.338;9.196;2024-01-30T12:59:02;3.38;;;1.75;;
41219;SDS011;26951;47.338;9.196;2024-01-30T13:01:46;2.25;;;1.40;;
41219;SDS011;26951;47.338;9.196;2024-01-30T13:04:31;1.77;;;1.35;;
41219;SDS011;26951;47.338;9.196;2024-01-30T13:07:15;1.92;;;1.50;;
41219;SDS011;26951;47.338;9.196;2024-01-30T13:10:00;2.10;;;1.67;;
41219;SDS011;26951;47.338;9.196;2024-01-30T13:12:46;2.28;;;1.80;;
41219;SDS011;26951;47.338;9.196;2024-01-30T13:15:30;1.73;;;1.45;;
41219;SDS011;26951;47.338;9.196;2024-01-30T13:18:15;1.80;;;1.60;;
41219;SDS011;26951;47.338;9.196;2024-01-30T13:20:59;3.20;;;1.48;;
41219;SDS011;26951;47.338;9.196;2024-01-30T13:23:43;1.65;;;1.55;;
41219;SDS011;26951;47.338;9.196;2024-01-30T13:26:27;2.83;;;1.50;;
41219;SDS011;26951;47.338;9.196;2024-01-30T13:29:12;2.22;;;1.60;;
41219;SDS011;26951;47.338;9.196;2024-01-30T13:31:56;1.80;;;1.40;;
41219;SDS011;26951;47.338;9.196;2024-01-30T13:34:40;3.83;;;1.52;;
41219;SDS011;26951;47.338;9.196;2024-01-30T13:37:24;1.60;;;1.40;;
41219;SDS011;26951;47.338;9.196;2024-01-30T13:40:08;2.22;;;1.98;;
41219;SDS011;26951;47.338;9.196;2024-01-30T13:42:53;3.00;;;1.85;;
41219;SDS011;26951;47.338;9.196;2024-01-30T13:45:37;1.48;;;1.38;;
41219;SDS011;26951;47.338;9.196;2024-01-30T13:48:21;1.95;;;1.70;;
41219;SDS011;26951;47.338;9.196;2024-01-30T13:51:05;1.73;;;1.20;;
41219;SDS011;26951;47.338;9.196;2024-01-30T13:53:49;1.55;;;1.40;;
41219;SDS011;26951;47.338;9.196;2024-01-30T13:56:34;1.98;;;1.77;;
41219;SDS011;26951;47.338;9.196;2024-01-30T13:59:18;1.50;;;1.40;;
41219;SDS011;26951;47.338;9.196;2024-01-30T14:02:07;2.15;;;1.25;;
41219;SDS011;26951;47.338;9.196;2024-01-30T14:04:53;1.73;;;1.20;;
41219;SDS011;26951;47.338;9.196;2024-01-30T14:07:37;2.13;;;1.40;;
41219;SDS011;26951;47.338;9.196;2024-01-30T14:10:24;2.08;;;1.60;;
41219;SDS011;26951;47.338;9.196;2024-01-30T14:13:09;1.73;;;1.30;;
41219;SDS011;26951;47.338;9.196;2024-01-30T14:15:53;2.28;;;1.42;;
41219;SDS011;26951;47.338;9.196;2024-01-30T14:18:37;1.57;;;1.33;;
41219;SDS011;26951;47.338;9.196;2024-01-30T14:21:21;2.33;;;1.52;;
41219;SDS011;26951;47.338;9.196;2024-01-30T14:24:05;2.95;;;1.70;;
41219;SDS011;26951;47.338;9.196;2024-01-30T14:26:50;1.55;;;1.38;;
41219;SDS011;26951;47.338;9.196;2024-01-30T14:29:34;1.52;;;1.40;;
41219;SDS011;26951;47.338;9.196;2024-01-30T14:32:18;1.60;;;1.30;;
41219;SDS011;26951;47.338;9.196;2024-01-30T14:35:03;1.60;;;1.40;;
41219;SDS011;26951;47.338;9.196;2024-01-30T14:37:48;3.13;;;1.60;;
41219;SDS011;26951;47.338;9.196;2024-01-30T14:40:33;2.70;;;1.40;;
41219;SDS011;26951;47.338;9.196;2024-01-30T14:43:17;2.78;;;1.50;;
41219;SDS011;26951;47.338;9.196;2024-01-30T14:46:01;1.58;;;1.40;;
41219;SDS011;26951;47.338;9.196;2024-01-30T14:48:45;1.92;;;1.52;;
41219;SDS011;26951;47.338;9.196;2024-01-30T14:51:29;1.63;;;1.27;;
41219;SDS011;26951;47.338;9.196;2024-01-30T14:54:13;1.67;;;1.58;;
41219;SDS011;26951;47.338;9.196;2024-01-30T14:56:57;2.90;;;1.50;;
41219;SDS011;26951;47.338;9.196;2024-01-30T15:02:27;1.55;;;1.20;;
41219;SDS011;26951;47.338;9.196;2024-01-30T15:05:12;1.70;;;1.30;;
41219;SDS011;26951;47.338;9.196;2024-01-30T15:07:56;1.37;;;1.10;;
41219;SDS011;26951;47.338;9.196;2024-01-30T15:10:40;2.47;;;1.70;;
41219;SDS011;26951;47.338;9.196;2024-01-30T15:13:24;1.55;;;1.30;;
41219;SDS011;26951;47.338;9.196;2024-01-30T15:16:08;1.65;;;1.17;;
41219;SDS011;26951;47.338;9.196;2024-01-30T15:18:53;1.63;;;1.50;;
41219;SDS011;26951;47.338;9.196;2024-01-30T15:21:37;3.40;;;1.40;;
41219;SDS011;26951;47.338;9.196;2024-01-30T15:24:21;3.25;;;1.77;;
41219;SDS011;26951;47.338;9.196;2024-01-30T15:27:08;1.45;;;1.10;;
41219;SDS011;26951;47.338;9.196;2024-01-30T15:29:52;1.70;;;1.38;;
41219;SDS011;26951;47.338;9.196;2024-01-30T15:32:36;2.42;;;1.25;;
41219;SDS011;26951;47.338;9.196;2024-01-30T15:35:20;2.58;;;1.50;;
41219;SDS011;26951;47.338;9.196;2024-01-30T15:38:05;2.85;;;1.38;;
41219;SDS011;26951;47.338;9.196;2024-01-30T15:40:52;1.83;;;1.40;;
41219;SDS011;26951;47.338;9.196;2024-01-30T15:43:37;1.58;;;1.30;;
41219;SDS011;26951;47.338;9.196;2024-01-30T15:46:21;1.50;;;1.23;;
41219;SDS011;26951;47.338;9.196;2024-01-30T15:49:05;1.27;;;1.10;;
41219;SDS011;26951;47.338;9.196;2024-01-30T15:54:34;2.08;;;1.27;;
41219;SDS011;26951;47.338;9.196;2024-01-30T15:57:18;2.30;;;1.40;;
41219;SDS011;26951;47.338;9.196;2024-01-30T16:00:03;2.22;;;1.77;;
41219;SDS011;26951;47.338;9.196;2024-01-30T16:02:47;1.37;;;1.17;;
41219;SDS011;26951;47.338;9.196;2024-01-30T16:05:32;2.50;;;1.40;;
41219;SDS011;26951;47.338;9.196;2024-01-30T16:08:16;2.03;;;1.40;;
41219;SDS011;26951;47.338;9.196;2024-01-30T16:11:00;2.17;;;1.38;;
41219;SDS011;26951;47.338;9.196;2024-01-30T16:13:45;1.40;;;1.30;;
41219;SDS011;26951;47.338;9.196;2024-01-30T16:16:29;1.77;;;1.65;;
41219;SDS011;26951;47.338;9.196;2024-01-30T16:19:13;2.42;;;1.35;;
41219;SDS011;26951;47.338;9.196;2024-01-30T16:21:57;2.33;;;1.40;;
41219;SDS011;26951;47.338;9.196;2024-01-30T16:24:41;1.80;;;1.50;;
41219;SDS011;26951;47.338;9.196;2024-01-30T16:27:25;3.13;;;1.58;;
41219;SDS011;26951;47.338;9.196;2024-01-30T16:30:10;2.90;;;1.85;;
41219;SDS011;26951;47.338;9.196;2024-01-30T16:32:54;1.73;;;1.17;;
41219;SDS011;26951;47.338;9.196;2024-01-30T16:35:39;1.60;;;1.50;;
41219;SDS011;26951;47.338;9.196;2024-01-30T16:38:25;2.38;;;1.45;;
41219;SDS011;26951;47.338;9.196;2024-01-30T16:41:10;1.42;;;1.23;;
41219;SDS011;26951;47.338;9.196;2024-01-30T16:43:55;1.88;;;1.20;;
41219;SDS011;26951;47.338;9.196;2024-01-30T16:46:40;2.17;;;1.73;;